Time,TemperatureF,DewpointF,PressureIn,WindDirection,WindDirectionDegrees,WindSpeedMPH,WindSpeedGustMPH,Humidity,HourlyPrecipIn,Conditions,Clouds,dailyrainin,SolarRadiationWatts/m^2,SoftwareType,DateUTC
2013-09-17 00:09:00,54.0,51.0,30.27,West,265,0.0,0.0,90,0.00,,,0.00,0,weatherlink.com 1.10,2013-09-17 04:09:00,
2013-09-17 00:24:00,54.0,51.0,30.27,West,265,0.0,0.0,90,0.00,,,0.00,0,weatherlink.com 1.10,2013-09-17 04:24:00,
2013-09-17 00:39:00,53.8,51.0,30.27,West,265,0.0,0.0,90,0.00,,,0.00,0,weatherlink.com 1.10,2013-09-17 04:39:00,
2013-09-17 00:54:00,53.9,51.0,30.27,West,265,0.0,0.0,90,0.00,,,0.00,0,weatherlink.com 1.10,2013-09-17 04:54:00,
2013-09-17 01:09:00,53.8,51.0,30.28,West,265,0.0,0.0,89,0.00,,,0.00,0,weatherlink.com 1.10,2013-09-17 05:09:00,
2013-09-17 01:24:00,53.8,51.0,30.28,West,265,0.0,0.0,89,0.00,,,0.00,0,weatherlink.com 1.10,2013-09-17 05:24:00,
2013-09-17 01:39:00,53.6,51.0,30.28,West,265,0.0,0.0,90,0.00,,,0.00,0,weatherlink.com 1.10,2013-09-17 05:39:00,
2013-09-17 01:54:00,53.4,50.0,30.28,West,265,0.0,0.0,89,0.00,,,0.00,0,weatherlink.com 1.10,2013-09-17 05:54:00,
2013-09-17 02:09:00,53.3,51.0,30.28,West,265,0.0,0.0,90,0.00,,,0.00,0,weatherlink.com 1.10,2013-09-17 06:09:00,
2013-09-17 02:24:00,53.2,50.0,30.29,West,265,0.0,0.0,90,0.00,,,0.00,0,weatherlink.com 1.10,2013-09-17 06:24:00,
2013-09-17 02:39:00,53.0,50.0,30.29,West,265,0.0,0.0,90,0.00,,,0.00,0,weatherlink.com 1.10,2013-09-17 06:39:00,
2013-09-17 02:54:00,52.5,50.0,30.29,West,265,0.0,0.0,90,0.00,,,0.00,0,weatherlink.com 1.10,2013-09-17 06:54:00,
2013-09-17 03:09:00,52.3,50.0,30.29,West,265,0.0,0.0,90,0.00,,,0.00,0,weatherlink.com 1.10,2013-09-17 07:09:00,
2013-09-17 03:24:00,52.2,50.0,30.28,West,265,0.0,0.0,91,0.00,,,0.00,0,weatherlink.com 1.10,2013-09-17 07:24:00,
2013-09-17 03:39:00,52.1,50.0,30.28,West,265,0.0,0.0,91,0.00,,,0.00,0,weatherlink.com 1.10,2013-09-17 07:39:00,
2013-09-17 03:54:00,52.0,50.0,30.28,West,265,0.0,0.0,91,0.00,,,0.00,0,weatherlink.com 1.10,2013-09-17 07:54:00,
2013-09-17 04:09:00,52.0,50.0,30.28,West,265,0.0,0.0,92,0.00,,,0.00,0,weatherlink.com 1.10,2013-09-17 08:09:00,
2013-09-17 04:24:00,52.0,50.0,30.27,West,265,0.0,0.0,92,0.00,,,0.00,0,weatherlink.com 1.10,2013-09-17 08:24:00,
2013-09-17 04:39:00,51.9,49.0,30.27,West,265,0.0,0.0,91,0.00,,,0.00,0,weatherlink.com 1.10,2013-09-17 08:39:00,
2013-09-17 04:54:00,51.8,50.0,30.27,West,265,0.0,0.0,92,0.00,,,0.00,0,weatherlink.com 1.10,2013-09-17 08:54:00,
2013-09-17 05:09:00,51.8,50.0,30.27,West,265,0.0,0.0,92,0.00,,,0.00,0,weatherlink.com 1.10,2013-09-17 09:09:00,
2013-09-17 05:24:00,51.7,50.0,30.27,West,265,0.0,0.0,92,0.00,,,0.00,0,weatherlink.com 1.10,2013-09-17 09:24:00,
2013-09-17 05:39:00,51.7,50.0,30.27,West,265,0.0,0.0,92,0.00,,,0.00,0,weatherlink.com 1.10,2013-09-17 09:39:00,
2013-09-17 05:54:00,51.5,49.0,30.27,West,265,0.0,0.0,92,0.00,,,0.00,0,weatherlink.com 1.10,2013-09-17 09:54:00,
2013-09-17 06:09:00,51.3,49.0,30.27,West,265,0.0,0.0,92,0.00,,,0.00,0,weatherlink.com 1.10,2013-09-17 10:09:00,
2013-09-17 06:24:00,51.1,49.0,30.27,West,265,0.0,0.0,92,0.00,,,0.00,0,weatherlink.com 1.10,2013-09-17 10:24:00,
2013-09-17 06:39:00,50.8,49.0,30.27,West,265,0.0,0.0,92,0.00,,,0.00,0,weatherlink.com 1.10,2013-09-17 10:39:00,
2013-09-17 06:54:00,50.5,49.0,30.27,West,265,0.0,0.0,93,0.00,,,0.00,0,weatherlink.com 1.10,2013-09-17 10:54:00,
2013-09-17 07:09:00,50.3,48.0,30.28,West,265,0.0,0.0,92,0.00,,,0.00,0,weatherlink.com 1.10,2013-09-17 11:09:00,
2013-09-17 07:24:00,50.3,48.0,30.29,West,265,0.0,0.0,93,0.00,,,0.00,7,weatherlink.com 1.10,2013-09-17 11:24:00,
2013-09-17 07:39:00,50.5,49.0,30.29,West,265,0.0,0.0,93,0.00,,,0.00,11,weatherlink.com 1.10,2013-09-17 11:39:00,
2013-09-17 07:54:00,50.7,49.0,30.29,West,265,0.0,0.0,93,0.00,,,0.00,21,weatherlink.com 1.10,2013-09-17 11:54:00,
2013-09-17 08:09:00,51.0,49.0,30.29,West,265,0.0,0.0,94,0.00,,,0.00,39,weatherlink.com 1.10,2013-09-17 12:09:00,
2013-09-17 08:24:00,51.3,50.0,30.29,West,265,0.0,0.0,94,0.00,,,0.00,54,weatherlink.com 1.10,2013-09-17 12:24:00,
2013-09-17 08:39:00,51.6,50.0,30.30,West,265,0.0,0.0,94,0.00,,,0.00,79,weatherlink.com 1.10,2013-09-17 12:39:00,
2013-09-17 08:55:00,52.3,51.0,30.30,West,265,0.0,0.0,94,0.00,,,0.00,114,weatherlink.com 1.10,2013-09-17 12:55:00,
2013-09-17 09:10:00,53.0,51.0,30.30,South,180,0.0,0.0,94,0.00,,,0.00,134,weatherlink.com 1.10,2013-09-17 13:10:00,
2013-09-17 09:25:00,53.7,52.0,30.30,SSW,194,0.0,0.0,93,0.00,,,0.00,151,weatherlink.com 1.10,2013-09-17 13:25:00,
2013-09-17 09:40:00,54.5,52.0,30.30,NNW,343,0.0,0.0,91,0.00,,,0.00,155,weatherlink.com 1.10,2013-09-17 13:40:00,
2013-09-17 09:55:00,55.9,53.0,30.30,NNW,343,0.0,0.0,91,0.00,,,0.00,376,weatherlink.com 1.10,2013-09-17 13:55:00,
2013-09-17 10:10:00,57.8,54.0,30.30,North,355,0.0,0.0,88,0.00,,,0.00,378,weatherlink.com 1.10,2013-09-17 14:10:00,
2013-09-17 10:25:00,59.1,54.0,30.30,ESE,119,0.0,0.0,84,0.00,,,0.00,323,weatherlink.com 1.10,2013-09-17 14:25:00,
2013-09-17 10:40:00,60.2,55.0,30.30,NNW,345,0.0,0.0,84,0.00,,,0.00,338,weatherlink.com 1.10,2013-09-17 14:40:00,
2013-09-17 10:55:00,61.2,55.0,30.30,West,277,0.0,0.0,80,0.00,,,0.00,373,weatherlink.com 1.10,2013-09-17 14:55:00,
2013-09-17 11:10:00,61.8,56.0,30.30,SSE,160,0.0,0.0,81,0.00,,,0.00,461,weatherlink.com 1.10,2013-09-17 15:10:00,
2013-09-17 11:25:00,63.4,56.0,30.30,WNW,288,0.0,0.0,78,0.00,,,0.00,654,weatherlink.com 1.10,2013-09-17 15:25:00,
2013-09-17 11:40:00,64.9,57.0,30.30,South,180,0.0,0.0,76,0.00,,,0.00,666,weatherlink.com 1.10,2013-09-17 15:40:00,
2013-09-17 11:55:00,66.4,57.0,30.29,SW,227,0.0,0.0,72,0.00,,,0.00,633,weatherlink.com 1.10,2013-09-17 15:55:00,
2013-09-17 12:10:00,67.4,57.0,30.29,WNW,302,0.0,0.0,69,0.00,,,0.00,819,weatherlink.com 1.10,2013-09-17 16:10:00,
2013-09-17 12:25:00,68.5,57.0,30.28,NNW,328,0.0,0.0,66,0.00,,,0.00,828,weatherlink.com 1.10,2013-09-17 16:25:00,
2013-09-17 12:40:00,69.7,58.0,30.27,NE,35,0.0,0.0,67,0.00,,,0.00,788,weatherlink.com 1.10,2013-09-17 16:40:00,
2013-09-17 12:56:00,70.6,57.0,30.26,ESE,121,0.0,0.0,62,0.00,,,0.00,594,weatherlink.com 1.10,2013-09-17 16:56:00,
2013-09-17 13:11:00,71.3,56.0,30.25,WNW,292,0.0,0.0,59,0.00,,,0.00,661,weatherlink.com 1.10,2013-09-17 17:11:00,
2013-09-17 13:26:00,71.7,56.0,30.25,NE,54,0.0,0.0,59,0.00,,,0.00,533,weatherlink.com 1.10,2013-09-17 17:26:00,
2013-09-17 13:41:00,71.3,56.0,30.25,ESE,114,0.0,0.0,58,0.00,,,0.00,504,weatherlink.com 1.10,2013-09-17 17:41:00,
2013-09-17 13:56:00,71.1,55.0,30.24,NE,48,0.0,0.0,58,0.00,,,0.00,431,weatherlink.com 1.10,2013-09-17 17:56:00,
2013-09-17 14:11:00,70.3,56.0,30.24,SSE,163,0.0,0.0,60,0.00,,,0.00,605,weatherlink.com 1.10,2013-09-17 18:11:00,
2013-09-17 14:26:00,71.7,57.0,30.23,SE,126,0.0,0.0,61,0.00,,,0.00,861,weatherlink.com 1.10,2013-09-17 18:26:00,
2013-09-17 14:41:00,71.9,56.0,30.22,ESE,109,0.0,0.0,58,0.00,,,0.00,287,weatherlink.com 1.10,2013-09-17 18:41:00,
2013-09-17 14:56:00,70.5,58.0,30.21,NNE,26,0.0,0.0,64,0.00,,,0.00,413,weatherlink.com 1.10,2013-09-17 18:56:00,
2013-09-17 15:11:00,71.7,58.0,30.21,East,88,0.0,0.0,62,0.00,,,0.00,547,weatherlink.com 1.10,2013-09-17 19:11:00,
2013-09-17 15:26:00,73.1,58.0,30.20,South,184,0.0,0.0,60,0.00,,,0.00,413,weatherlink.com 1.10,2013-09-17 19:26:00,
2013-09-17 15:41:00,72.8,58.0,30.19,ESE,105,0.0,0.0,61,0.00,,,0.00,624,weatherlink.com 1.10,2013-09-17 19:41:00,
2013-09-17 15:56:00,73.0,57.0,30.19,NNE,24,0.0,0.0,57,0.00,,,0.00,330,weatherlink.com 1.10,2013-09-17 19:56:00,
2013-09-17 16:11:00,71.4,59.0,30.18,NE,51,0.0,0.0,64,0.00,,,0.00,468,weatherlink.com 1.10,2013-09-17 20:11:00,
2013-09-17 16:26:00,72.6,58.0,30.18,South,172,0.0,0.0,61,0.00,,,0.00,534,weatherlink.com 1.10,2013-09-17 20:26:00,
2013-09-17 16:41:00,72.7,59.0,30.17,NNW,348,0.0,0.0,62,0.00,,,0.00,374,weatherlink.com 1.10,2013-09-17 20:41:00,
2013-09-17 16:56:00,72.6,59.0,30.17,NNW,348,0.0,0.0,62,0.00,,,0.00,285,weatherlink.com 1.10,2013-09-17 20:56:00,
2013-09-17 17:11:00,72.2,60.0,30.17,NNW,348,0.0,0.0,65,0.00,,,0.00,158,weatherlink.com 1.10,2013-09-17 21:11:00,
2013-09-17 17:26:00,71.2,60.0,30.17,NE,42,0.0,0.0,68,0.00,,,0.00,178,weatherlink.com 1.10,2013-09-17 21:26:00,
2013-09-17 17:41:00,71.0,60.0,30.17,NE,42,0.0,0.0,68,0.00,,,0.00,171,weatherlink.com 1.10,2013-09-17 21:41:00,
2013-09-17 17:56:00,71.2,61.0,30.17,NE,42,0.0,0.0,70,0.00,,,0.00,251,weatherlink.com 1.10,2013-09-17 21:56:00,
2013-09-17 18:11:00,70.2,60.0,30.16,NE,42,0.0,0.0,71,0.00,,,0.00,158,weatherlink.com 1.10,2013-09-17 22:11:00,
2013-09-17 18:26:00,69.8,62.0,30.16,NE,42,0.0,0.0,76,0.00,,,0.00,93,weatherlink.com 1.10,2013-09-17 22:26:00,
2013-09-17 18:41:00,68.7,61.0,30.16,NE,42,0.0,0.0,75,0.00,,,0.00,88,weatherlink.com 1.10,2013-09-17 22:41:00,
2013-09-17 18:56:00,68.2,61.0,30.16,NE,42,0.0,0.0,79,0.00,,,0.00,76,weatherlink.com 1.10,2013-09-17 22:56:00,
2013-09-17 19:11:00,67.7,61.0,30.15,NE,42,0.0,0.0,79,0.00,,,0.00,46,weatherlink.com 1.10,2013-09-17 23:11:00,
2013-09-17 19:26:00,67.0,60.0,30.15,NE,42,0.0,0.0,77,0.00,,,0.00,39,weatherlink.com 1.10,2013-09-17 23:26:00,
2013-09-17 19:41:00,65.7,58.0,30.14,NE,42,0.0,0.0,77,0.00,,,0.00,18,weatherlink.com 1.10,2013-09-17 23:41:00,
2013-09-17 19:56:00,64.8,57.0,30.14,NE,42,0.0,0.0,77,0.00,,,0.00,0,weatherlink.com 1.10,2013-09-17 23:56:00,
2013-09-17 20:11:00,63.8,57.0,30.14,NE,42,0.0,0.0,78,0.00,,,0.00,0,weatherlink.com 1.10,2013-09-18 00:11:00,
2013-09-17 20:26:00,62.9,56.0,30.15,NE,42,0.0,0.0,79,0.00,,,0.00,0,weatherlink.com 1.10,2013-09-18 00:26:00,
2013-09-17 20:41:00,62.0,56.0,30.15,NE,42,0.0,0.0,80,0.00,,,0.00,0,weatherlink.com 1.10,2013-09-18 00:41:00,
2013-09-17 20:56:00,61.2,56.0,30.15,NE,42,0.0,0.0,82,0.00,,,0.00,0,weatherlink.com 1.10,2013-09-18 00:56:00,
2013-09-17 21:11:00,60.4,55.0,30.15,NE,42,0.0,0.0,82,0.00,,,0.00,0,weatherlink.com 1.10,2013-09-18 01:11:00,
2013-09-17 21:26:00,59.8,55.0,30.15,NE,42,0.0,0.0,83,0.00,,,0.00,0,weatherlink.com 1.10,2013-09-18 01:26:00,
2013-09-17 21:41:00,59.4,55.0,30.15,NE,42,0.0,0.0,84,0.00,,,0.00,0,weatherlink.com 1.10,2013-09-18 01:41:00,
2013-09-17 21:56:00,59.1,55.0,30.15,NE,42,0.0,0.0,86,0.00,,,0.00,0,weatherlink.com 1.10,2013-09-18 01:56:00,
2013-09-17 22:11:00,58.9,55.0,30.15,NE,42,0.0,0.0,87,0.00,,,0.00,0,weatherlink.com 1.10,2013-09-18 02:11:00,
2013-09-17 22:26:00,59.1,56.0,30.15,NE,42,0.0,0.0,88,0.00,,,0.00,0,weatherlink.com 1.10,2013-09-18 02:26:00,
2013-09-17 22:41:00,59.3,56.0,30.15,NE,42,0.0,0.0,89,0.00,,,0.00,0,weatherlink.com 1.10,2013-09-18 02:41:00,
2013-09-17 22:56:00,59.4,56.0,30.15,NE,42,0.0,0.0,88,0.00,,,0.00,0,weatherlink.com 1.10,2013-09-18 02:56:00,
2013-09-17 23:11:00,59.6,56.0,30.14,NE,42,0.0,0.0,88,0.00,,,0.00,0,weatherlink.com 1.10,2013-09-18 03:11:00,
2013-09-17 23:26:00,59.3,56.0,30.14,NE,42,0.0,0.0,87,0.00,,,0.00,0,weatherlink.com 1.10,2013-09-18 03:26:00,
2013-09-17 23:41:00,58.8,55.0,30.14,NE,42,0.0,0.0,87,0.00,,,0.00,0,weatherlink.com 1.10,2013-09-18 03:41:00,
2013-09-17 23:56:00,58.2,55.0,30.14,NE,42,0.0,0.0,88,0.00,,,0.00,0,weatherlink.com 1.10,2013-09-18 03:56:00,